Time;durP1;ratioP1;P1;durP2;ratioP2;P2;SDS_P1;SDS_P2;PMS_P1;PMS_P2;Temp;Humidity;BMP_temperature;BMP_pressure;BME280_temperature;BME280_humidity;BME280_pressure;Samples;Min_cycle;Max_cycle;Signal;HPM_P1;HPM_P2
2021/12/10 00:00:10;;;;;;;5.03;1.98;;;;;;;;;;4965196;28;20093;-86
2021/12/10 00:02:35;;;;;;;;;;;;;;;;;;4991837;28;20030;-86
2021/12/10 00:05:05;;;;;;;7.72;2.42;;;;;;;;;;4987438;28;19933;-86
2021/12/10 00:07:33;;;;;;;3.70;1.70;;;;;;;;;;4981611;28;20109;-87
2021/12/10 00:10:03;;;;;;;8.15;2.38;;;;;;;;;;4983938;28;20573;-86
2021/12/10 00:12:45;;;;;;;6.63;2.60;;;;;;;;;;4961151;28;20017;-86
2021/12/10 00:15:11;;;;;;;6.20;2.03;;;;;;;;;;4978663;28;20031;-87
2021/12/10 00:17:36;;;;;;;6.20;2.00;;;;;;;;;;4962822;28;20117;-86
2021/12/10 00:20:04;;;;;;;6.97;2.20;;;;;;;;;;4962712;28;20121;-86
2021/12/10 00:22:40;;;;;;;8.75;1.90;;;;;;;;;;4973231;28;20031;-87
2021/12/10 00:25:13;;;;;;;7.43;2.25;;;;;;;;;;4960266;28;20029;-85
2021/12/10 00:27:40;;;;;;;5.35;2.00;;;;;;;;;;4979577;28;20034;-85
2021/12/10 00:30:13;;;;;;;5.13;1.95;;;;;;;;;;4978496;28;20030;-84
2021/12/10 00:32:43;;;;;;;3.85;1.80;;;;;;;;;;4976838;28;20025;-87
2021/12/10 00:35:17;;;;;;;10.75;3.53;;;;;;;;;;4977588;28;20015;-84
2021/12/10 00:37:43;;;;;;;5.47;2.40;;;;;;;;;;4982380;28;20030;-86
2021/12/10 00:40:14;;;;;;;8.25;2.20;;;;;;;;;;4974397;28;20077;-87
2021/12/10 00:42:40;;;;;;;9.17;2.20;;;;;;;;;;4984467;28;20547;-87
2021/12/10 00:45:09;;;;;;;7.35;2.45;;;;;;;;;;4979634;28;20260;-86
2021/12/10 00:47:34;;;;;;;3.40;1.70;;;;;;;;;;4980371;28;20050;-87
2021/12/10 00:50:01;;;;;;;3.92;2.08;;;;;;;;;;4977210;28;20062;-86
2021/12/10 00:52:27;;;;;;;7.32;2.83;;;;;;;;;;4978446;28;20030;-86
2021/12/10 00:54:52;;;;;;;5.03;2.30;;;;;;;;;;4983584;28;20022;-88
2021/12/10 00:57:19;;;;;;;5.10;1.88;;;;;;;;;;4983539;28;20507;-88
2021/12/10 00:59:46;;;;;;;5.30;1.85;;;;;;;;;;4976403;28;20392;-88
2021/12/10 01:02:15;;;;;;;3.10;1.80;;;;;;;;;;4980332;28;20023;-87
2021/12/10 01:04:45;;;;;;;4.60;1.65;;;;;;;;;;4980393;28;20037;-87
2021/12/10 01:07:17;;;;;;;3.70;1.70;;;;;;;;;;4958455;28;20021;-85
2021/12/10 01:09:46;;;;;;;5.78;1.92;;;;;;;;;;4974521;28;20030;-85
2021/12/10 01:12:35;;;;;;;6.70;1.88;;;;;;;;;;4975709;28;20042;-88
2021/12/10 01:15:51;;;;;;;8.00;2.00;;;;;;;;;;4981242;28;20042;-85
2021/12/10 01:23:52;;;;;;;3.88;1.77;;;;;;;;;;4980107;28;20458;-87
2021/12/10 01:26:39;;;;;;;5.93;2.03;;;;;;;;;;4969149;28;20503;-85
2021/12/10 01:29:07;;;;;;;2.58;1.75;;;;;;;;;;4975258;28;20026;-86
2021/12/10 01:31:32;;;;;;;6.25;1.83;;;;;;;;;;4984125;28;20405;-87
2021/12/10 01:33:58;;;;;;;8.90;2.28;;;;;;;;;;4963431;28;20480;-88
2021/12/10 01:36:23;;;;;;;10.23;2.00;;;;;;;;;;4980477;28;20026;-87
2021/12/10 01:38:52;;;;;;;3.70;2.10;;;;;;;;;;4977411;28;20061;-87
2021/12/10 01:41:20;;;;;;;5.28;1.80;;;;;;;;;;4957716;28;20047;-85
2021/12/10 01:43:50;;;;;;;5.03;1.75;;;;;;;;;;4978426;28;20031;-88
2021/12/10 01:46:27;;;;;;;5.00;2.22;;;;;;;;;;4984948;28;20023;-87
2021/12/10 01:49:01;;;;;;;4.30;2.28;;;;;;;;;;4984976;28;20096;-86
2021/12/10 01:51:30;;;;;;;5.00;2.30;;;;;;;;;;4986021;28;20046;-87
2021/12/10 01:54:02;;;;;;;5.32;2.20;;;;;;;;;;4971051;28;20114;-88
2021/12/10 01:56:31;;;;;;;7.97;2.35;;;;;;;;;;4974232;28;20053;-86
2021/12/10 01:58:59;;;;;;;4.88;2.22;;;;;;;;;;4978721;28;20038;-85
2021/12/10 02:01:31;;;;;;;5.63;1.90;;;;;;;;;;4975793;28;20026;-87
2021/12/10 02:03:58;;;;;;;2.53;2.10;;;;;;;;;;4972084;28;20027;-86
2021/12/10 02:06:24;;;;;;;6.93;2.35;;;;;;;;;;4970217;28;20024;-87
2021/12/10 02:08:50;;;;;;;4.57;1.98;;;;;;;;;;4972181;28;20031;-85
2021/12/10 02:11:16;;;;;;;5.35;2.53;;;;;;;;;;4990689;28;20030;-87
2021/12/10 02:13:43;;;;;;;6.75;2.40;;;;;;;;;;4976911;28;20353;-84
2021/12/10 02:16:08;;;;;;;3.33;1.80;;;;;;;;;;4983690;28;20030;-85
2021/12/10 02:18:34;;;;;;;3.83;1.80;;;;;;;;;;4979724;28;20078;-87
2021/12/10 02:21:03;;;;;;;3.97;1.90;;;;;;;;;;4975173;28;20034;-87
2021/12/10 02:23:41;;;;;;;8.02;2.78;;;;;;;;;;4957536;28;20165;-87
2021/12/10 02:26:11;;;;;;;2.53;1.48;;;;;;;;;;4974018;28;20506;-86
2021/12/10 02:28:37;;;;;;;4.95;1.75;;;;;;;;;;4976567;28;20058;-87
2021/12/10 02:31:04;;;;;;;3.90;1.95;;;;;;;;;;4956788;28;20030;-86
2021/12/10 02:33:30;;;;;;;3.50;1.95;;;;;;;;;;4979896;28;20038;-87
2021/12/10 02:35:56;;;;;;;7.53;1.58;;;;;;;;;;4947636;28;20046;-86
2021/12/10 02:38:22;;;;;;;5.78;1.38;;;;;;;;;;4957967;28;20069;-86
2021/12/10 02:40:50;;;;;;;7.35;2.35;;;;;;;;;;4970941;28;20039;-83
2021/12/10 02:43:17;;;;;;;5.07;1.85;;;;;;;;;;4974426;28;20019;-87
2021/12/10 02:45:46;;;;;;;3.72;1.85;;;;;;;;;;4989310;28;20030;-86
2021/12/10 02:48:12;;;;;;;6.85;2.08;;;;;;;;;;4976305;28;20082;-85
2021/12/10 02:50:38;;;;;;;2.67;1.52;;;;;;;;;;4979531;28;20046;-86
2021/12/10 02:53:05;;;;;;;7.97;1.77;;;;;;;;;;4948044;29;20042;-84
2021/12/10 02:55:32;;;;;;;6.90;1.80;;;;;;;;;;4948178;28;20026;-87
2021/12/10 02:58:02;;;;;;;5.93;1.80;;;;;;;;;;4981879;28;20093;-86
2021/12/10 03:00:31;;;;;;;4.50;1.98;;;;;;;;;;4976906;28;20073;-87
2021/12/10 03:02:57;;;;;;;4.57;1.95;;;;;;;;;;4978610;28;20031;-87
2021/12/10 03:05:23;;;;;;;3.75;1.80;;;;;;;;;;4964106;28;20460;-85
2021/12/10 03:07:48;;;;;;;4.07;1.65;;;;;;;;;;4996118;28;20122;-86
2021/12/10 03:10:20;;;;;;;7.05;1.70;;;;;;;;;;4979383;28;20030;-89
2021/12/10 03:12:45;;;;;;;1.97;1.50;;;;;;;;;;4975464;28;20039;-85
2021/12/10 03:15:12;;;;;;;5.93;1.52;;;;;;;;;;4960918;28;20121;-88
2021/12/10 03:17:38;;;;;;;4.82;1.65;;;;;;;;;;4978986;28;20022;-86
2021/12/10 03:20:09;;;;;;;10.45;2.45;;;;;;;;;;4977172;28;20401;-86
2021/12/10 03:22:37;;;;;;;8.13;2.05;;;;;;;;;;4988025;28;20061;-86
2021/12/10 03:25:04;;;;;;;5.43;3.10;;;;;;;;;;4985337;28;20039;-86
2021/12/10 03:27:30;;;;;;;9.40;2.63;;;;;;;;;;4960696;28;20031;-84
2021/12/10 03:29:55;;;;;;;4.53;1.73;;;;;;;;;;4976509;28;20049;-87
2021/12/10 03:32:28;;;;;;;8.48;2.25;;;;;;;;;;4977422;28;20023;-86
2021/12/10 03:34:56;;;;;;;4.75;1.45;;;;;;;;;;4977986;28;20030;-87
2021/12/10 03:37:22;;;;;;;1.73;1.35;;;;;;;;;;4979357;28;20018;-87
2021/12/10 03:39:49;;;;;;;3.13;1.55;;;;;;;;;;4985553;28;20045;-89
2021/12/10 03:42:15;;;;;;;5.95;1.55;;;;;;;;;;4960696;28;20436;-87
2021/12/10 03:44:41;;;;;;;8.75;2.33;;;;;;;;;;4987280;28;20511;-89
2021/12/10 03:47:08;;;;;;;8.98;2.42;;;;;;;;;;4963822;28;20465;-89
2021/12/10 03:49:36;;;;;;;6.97;1.85;;;;;;;;;;4965279;28;20459;-88
2021/12/10 03:52:05;;;;;;;3.83;1.73;;;;;;;;;;4981508;28;20419;-87
2021/12/10 03:54:31;;;;;;;3.05;1.58;;;;;;;;;;4981797;28;20034;-86
2021/12/10 03:56:56;;;;;;;5.70;1.85;;;;;;;;;;4982978;28;20030;-86
2021/12/10 04:02:43;;;;;;;3.72;1.73;;;;;;;;;;4977136;28;20207;-88
2021/12/10 04:05:09;;;;;;;4.93;1.77;;;;;;;;;;4979828;28;20113;-88
2021/12/10 04:07:34;;;;;;;5.35;1.70;;;;;;;;;;4982648;28;20082;-86
2021/12/10 04:10:02;;;;;;;2.85;1.70;;;;;;;;;;4968405;28;20030;-87
2021/12/10 04:12:28;;;;;;;3.58;1.75;;;;;;;;;;4977712;28;20066;-85
2021/12/10 04:14:53;;;;;;;3.72;1.83;;;;;;;;;;4976410;28;20039;-86
2021/12/10 04:17:21;;;;;;;3.60;1.63;;;;;;;;;;4978924;28;20030;-85
2021/12/10 04:19:50;;;;;;;3.55;1.80;;;;;;;;;;4960184;28;20386;-84
2021/12/10 04:22:17;;;;;;;1.95;1.38;;;;;;;;;;4969179;28;20026;-85
2021/12/10 04:24:42;;;;;;;7.63;2.30;;;;;;;;;;4973244;28;20041;-86
2021/12/10 04:27:10;;;;;;;5.82;2.45;;;;;;;;;;4984586;28;20034;-87
2021/12/10 04:29:36;;;;;;;9.15;2.45;;;;;;;;;;4982314;28;20035;-86
2021/12/10 04:32:03;;;;;;;9.43;3.28;;;;;;;;;;4976469;28;20511;-85
2021/12/10 04:34:29;;;;;;;5.80;2.42;;;;;;;;;;4975688;28;20042;-87
2021/12/10 04:36:57;;;;;;;4.18;2.55;;;;;;;;;;4965890;28;20050;-87
2021/12/10 04:39:24;;;;;;;8.70;2.88;;;;;;;;;;4955574;28;20022;-87
2021/12/10 04:41:50;;;;;;;7.30;2.50;;;;;;;;;;4985092;28;20064;-87
2021/12/10 04:44:15;;;;;;;7.57;3.45;;;;;;;;;;4966016;28;20437;-87
2021/12/10 04:46:41;;;;;;;7.93;3.15;;;;;;;;;;4980610;28;20031;-87
2021/12/10 04:49:12;;;;;;;6.40;3.22;;;;;;;;;;4963573;28;20038;-87
2021/12/10 04:51:40;;;;;;;10.13;3.53;;;;;;;;;;4979855;28;20058;-85
2021/12/10 04:54:07;;;;;;;8.38;3.20;;;;;;;;;;4988923;28;20507;-87
2021/12/10 04:56:34;;;;;;;5.20;3.10;;;;;;;;;;4975873;28;20071;-86
2021/12/10 04:59:01;;;;;;;5.70;3.53;;;;;;;;;;4978396;28;20046;-86
2021/12/10 05:01:28;;;;;;;9.15;3.15;;;;;;;;;;4978384;28;20035;-85
2021/12/10 05:03:54;;;;;;;7.25;3.72;;;;;;;;;;4963614;28;20126;-87
2021/12/10 05:06:19;;;;;;;6.55;3.85;;;;;;;;;;4951872;28;20055;-85
2021/12/10 05:08:45;;;;;;;7.47;3.55;;;;;;;;;;4973928;28;20023;-87
2021/12/10 05:11:11;;;;;;;7.75;3.08;;;;;;;;;;4984764;28;20026;-85
2021/12/10 05:13:39;;;;;;;8.65;3.83;;;;;;;;;;4979277;28;20027;-87
2021/12/10 05:16:05;;;;;;;5.80;3.10;;;;;;;;;;4973935;28;20065;-86
2021/12/10 05:18:37;;;;;;;5.90;2.95;;;;;;;;;;4981949;28;20025;-86
2021/12/10 05:21:04;;;;;;;7.90;3.75;;;;;;;;;;4978437;28;20381;-86
2021/12/10 05:23:29;;;;;;;8.63;3.72;;;;;;;;;;4963783;28;20026;-88
2021/12/10 05:25:55;;;;;;;8.65;3.70;;;;;;;;;;4981313;28;20061;-87
2021/12/10 05:28:20;;;;;;;7.50;3.80;;;;;;;;;;4958679;28;20030;-88
2021/12/10 05:30:46;;;;;;;10.13;4.10;;;;;;;;;;4975464;28;20098;-86
2021/12/10 05:33:18;;;;;;;7.03;3.72;;;;;;;;;;4980160;28;20392;-85
2021/12/10 05:36:21;;;;;;;8.97;3.80;;;;;;;;;;4964395;28;20097;-86
2021/12/10 05:38:47;;;;;;;11.45;4.20;;;;;;;;;;4966457;28;20037;-88
2021/12/10 05:41:12;;;;;;;10.40;4.03;;;;;;;;;;4967476;28;20018;-87
2021/12/10 05:43:41;;;;;;;12.90;4.22;;;;;;;;;;4976020;28;20085;-83
2021/12/10 05:46:07;;;;;;;10.38;4.45;;;;;;;;;;4974819;28;20038;-86
2021/12/10 05:48:32;;;;;;;6.43;3.85;;;;;;;;;;4973764;28;20358;-86
2021/12/10 05:50:58;;;;;;;10.13;4.43;;;;;;;;;;4974292;28;20071;-84
2021/12/10 05:53:24;;;;;;;11.45;4.68;;;;;;;;;;4976837;28;20113;-85
2021/12/10 05:55:49;;;;;;;15.88;5.22;;;;;;;;;;4979786;28;20031;-85
2021/12/10 05:58:15;;;;;;;10.07;4.25;;;;;;;;;;4950343;28;20436;-84
2021/12/10 06:00:51;;;;;;;9.07;3.90;;;;;;;;;;4975922;28;20045;-85
2021/12/10 06:03:17;;;;;;;9.07;3.97;;;;;;;;;;4974676;28;20019;-85
2021/12/10 06:05:44;;;;;;;12.32;4.75;;;;;;;;;;4974864;28;20031;-85
2021/12/10 06:08:11;;;;;;;9.18;4.72;;;;;;;;;;4976376;28;20034;-85
2021/12/10 06:10:37;;;;;;;11.13;4.45;;;;;;;;;;4981128;28;20038;-85
2021/12/10 06:13:03;;;;;;;8.73;4.28;;;;;;;;;;4984116;28;20033;-85
2021/12/10 06:15:29;;;;;;;7.88;3.95;;;;;;;;;;4961684;28;20114;-85
2021/12/10 06:17:55;;;;;;;10.30;3.90;;;;;;;;;;4977465;28;20030;-84
2021/12/10 06:20:25;;;;;;;10.75;5.07;;;;;;;;;;4958763;28;20030;-83
2021/12/10 06:22:52;;;;;;;8.70;3.72;;;;;;;;;;4959579;28;20031;-84
2021/12/10 06:25:18;;;;;;;10.80;4.30;;;;;;;;;;4977446;28;20082;-85
2021/12/10 06:27:46;;;;;;;7.57;4.50;;;;;;;;;;4976042;28;20629;-84
2021/12/10 06:30:20;;;;;;;8.98;4.57;;;;;;;;;;4979664;28;20027;-84
2021/12/10 06:32:46;;;;;;;8.00;4.22;;;;;;;;;;4968184;28;20030;-84
2021/12/10 06:35:13;;;;;;;9.70;4.88;;;;;;;;;;4981624;28;20018;-85
2021/12/10 06:37:41;;;;;;;13.52;5.10;;;;;;;;;;4964489;28;20033;-85
2021/12/10 06:40:09;;;;;;;8.63;4.47;;;;;;;;;;4978641;28;20030;-84
2021/12/10 06:42:34;;;;;;;10.10;4.32;;;;;;;;;;4989111;28;20029;-84
2021/12/10 06:45:00;;;;;;;8.63;4.25;;;;;;;;;;4988826;28;20026;-84
2021/12/10 06:47:27;;;;;;;11.52;4.75;;;;;;;;;;4975870;28;20030;-84
2021/12/10 06:49:52;;;;;;;8.95;4.40;;;;;;;;;;4978177;28;20031;-85
2021/12/10 06:52:18;;;;;;;7.50;4.32;;;;;;;;;;4961457;28;20396;-84
2021/12/10 06:54:43;;;;;;;9.00;4.45;;;;;;;;;;4986987;28;20042;-86
2021/12/10 06:57:09;;;;;;;6.10;3.60;;;;;;;;;;4974320;28;20618;-86
2021/12/10 06:59:34;;;;;;;15.05;4.32;;;;;;;;;;4976760;28;20034;-81
2021/12/10 07:02:00;;;;;;;6.75;4.07;;;;;;;;;;4982734;28;20049;-84
2021/12/10 07:04:25;;;;;;;15.18;4.63;;;;;;;;;;4961050;28;20041;-83
2021/12/10 07:06:52;;;;;;;9.30;5.10;;;;;;;;;;4986567;28;20054;-84
2021/12/10 07:09:21;;;;;;;9.20;4.65;;;;;;;;;;4970350;28;20050;-82
2021/12/10 07:11:48;;;;;;;8.57;3.92;;;;;;;;;;4986618;28;20026;-84
2021/12/10 07:14:13;;;;;;;9.10;3.58;;;;;;;;;;4960497;28;20046;-83
2021/12/10 07:16:39;;;;;;;9.68;4.78;;;;;;;;;;4977895;28;20497;-83
2021/12/10 07:19:06;;;;;;;12.93;5.40;;;;;;;;;;4980251;28;20027;-84
2021/12/10 07:21:34;;;;;;;13.25;5.32;;;;;;;;;;4987978;28;20070;-82
2021/12/10 07:24:04;;;;;;;12.57;4.55;;;;;;;;;;4978702;28;20109;-84
2021/12/10 07:26:30;;;;;;;8.88;3.70;;;;;;;;;;4977695;28;20468;-84
2021/12/10 07:28:56;;;;;;;7.28;4.40;;;;;;;;;;4985963;28;20600;-82
2021/12/10 07:31:22;;;;;;;6.75;3.83;;;;;;;;;;4979260;28;20026;-83
2021/12/10 07:33:47;;;;;;;9.07;3.55;;;;;;;;;;4968519;28;20117;-82
2021/12/10 07:36:15;;;;;;;7.88;4.15;;;;;;;;;;4979635;28;20472;-84
2021/12/10 07:38:41;;;;;;;7.72;4.60;;;;;;;;;;4995055;28;20046;-83
2021/12/10 07:41:07;;;;;;;6.10;4.30;;;;;;;;;;4988353;28;20090;-85
2021/12/10 07:43:33;;;;;;;12.30;4.70;;;;;;;;;;4991474;28;20022;-86
2021/12/10 07:45:59;;;;;;;9.23;4.45;;;;;;;;;;4972786;28;20030;-83
2021/12/10 07:48:27;;;;;;;9.52;4.63;;;;;;;;;;4981838;28;20596;-85
2021/12/10 07:50:58;;;;;;;8.23;4.93;;;;;;;;;;4973321;28;20047;-83
2021/12/10 07:53:25;;;;;;;13.77;5.47;;;;;;;;;;4978365;28;20022;-83
2021/12/10 07:55:51;;;;;;;11.05;5.07;;;;;;;;;;4983873;28;20027;-84
2021/12/10 07:58:17;;;;;;;14.10;5.35;;;;;;;;;;4989880;28;20034;-85
2021/12/10 08:00:44;;;;;;;11.63;4.97;;;;;;;;;;4984422;28;20034;-82
2021/12/10 08:03:10;;;;;;;11.27;5.07;;;;;;;;;;4978459;28;20031;-84
2021/12/10 08:05:37;;;;;;;12.13;5.85;;;;;;;;;;4979485;28;20028;-84
2021/12/10 08:08:05;;;;;;;10.70;5.78;;;;;;;;;;4989392;28;20026;-83
2021/12/10 08:10:31;;;;;;;10.85;5.28;;;;;;;;;;4985251;28;20022;-83
2021/12/10 08:12:57;;;;;;;8.38;5.25;;;;;;;;;;4982784;28;20034;-85
2021/12/10 08:15:22;;;;;;;8.65;5.38;;;;;;;;;;4979767;28;20078;-85
2021/12/10 08:17:51;;;;;;;12.85;6.50;;;;;;;;;;4983053;28;20417;-85
2021/12/10 08:20:21;;;;;;;11.27;4.95;;;;;;;;;;4969380;28;20019;-84
2021/12/10 08:22:48;;;;;;;8.85;5.03;;;;;;;;;;4962725;28;20034;-83
2021/12/10 08:25:13;;;;;;;11.43;5.25;;;;;;;;;;4989011;28;20058;-82
2021/12/10 08:27:39;;;;;;;13.38;5.45;;;;;;;;;;4992032;28;20433;-84
2021/12/10 08:30:07;;;;;;;10.40;5.10;;;;;;;;;;4978681;28;20026;-83
2021/12/10 08:32:33;;;;;;;9.25;5.63;;;;;;;;;;4981380;28;20391;-83
2021/12/10 08:35:00;;;;;;;9.23;5.18;;;;;;;;;;4979199;28;20083;-84
2021/12/10 08:37:25;;;;;;;12.10;5.75;;;;;;;;;;4960608;28;20171;-83
2021/12/10 08:39:51;;;;;;;13.38;5.55;;;;;;;;;;4976454;28;20067;-83
2021/12/10 08:42:16;;;;;;;12.68;6.30;;;;;;;;;;4986560;28;20022;-84
2021/12/10 08:44:43;;;;;;;16.15;6.47;;;;;;;;;;4979317;28;20373;-83
2021/12/10 08:47:11;;;;;;;10.70;6.20;;;;;;;;;;4976225;28;20039;-83
2021/12/10 08:49:36;;;;;;;12.63;6.18;;;;;;;;;;4982640;28;20026;-82
2021/12/10 08:52:04;;;;;;;10.40;5.47;;;;;;;;;;4976235;28;20041;-84
2021/12/10 08:54:30;;;;;;;14.43;5.70;;;;;;;;;;4976578;28;20022;-84
2021/12/10 08:56:58;;;;;;;13.32;5.55;;;;;;;;;;4979485;28;20057;-83
2021/12/10 08:59:24;;;;;;;12.07;5.32;;;;;;;;;;4964564;28;20029;-84
2021/12/10 09:01:55;;;;;;;13.00;4.90;;;;;;;;;;4976198;28;20034;-84
2021/12/10 09:04:21;;;;;;;9.85;4.53;;;;;;;;;;4975915;28;20334;-82
2021/12/10 09:06:51;;;;;;;7.35;4.30;;;;;;;;;;4972968;28;20030;-84
2021/12/10 09:09:18;;;;;;;15.55;4.63;;;;;;;;;;4979510;28;20121;-84
2021/12/10 09:11:46;;;;;;;8.60;3.95;;;;;;;;;;4964015;28;20023;-83
2021/12/10 09:14:13;;;;;;;6.63;3.72;;;;;;;;;;4977390;28;20023;-83
2021/12/10 09:16:39;;;;;;;7.68;3.78;;;;;;;;;;4982998;28;20026;-83
2021/12/10 09:19:09;;;;;;;5.65;3.60;;;;;;;;;;4966152;28;20054;-83
2021/12/10 09:21:35;;;;;;;8.00;3.88;;;;;;;;;;4969393;28;20014;-83
2021/12/10 09:24:05;;;;;;;8.85;3.70;;;;;;;;;;4967568;28;20492;-85
2021/12/10 09:26:34;;;;;;;12.77;5.00;;;;;;;;;;4974693;28;20022;-83
2021/12/10 09:29:03;;;;;;;9.45;4.68;;;;;;;;;;4981174;28;20030;-84
2021/12/10 09:31:29;;;;;;;11.00;4.13;;;;;;;;;;4987116;28;20029;-84
2021/12/10 09:33:57;;;;;;;16.42;5.13;;;;;;;;;;4979689;28;20093;-83
2021/12/10 09:36:24;;;;;;;10.48;4.95;;;;;;;;;;4982336;28;20018;-84
2021/12/10 09:38:50;;;;;;;10.48;4.60;;;;;;;;;;4985634;28;20539;-84
2021/12/10 09:41:17;;;;;;;9.80;5.05;;;;;;;;;;4978399;28;20054;-84
2021/12/10 09:43:42;;;;;;;9.75;4.63;;;;;;;;;;4976454;28;20037;-83
2021/12/10 09:46:09;;;;;;;11.88;4.90;;;;;;;;;;4974796;28;20035;-84
2021/12/10 09:48:36;;;;;;;8.77;3.75;;;;;;;;;;4983380;28;20621;-84
2021/12/10 09:51:08;;;;;;;12.73;4.22;;;;;;;;;;4985601;28;20030;-84
2021/12/10 09:53:37;;;;;;;11.95;4.72;;;;;;;;;;4979238;28;20076;-84
2021/12/10 09:56:04;;;;;;;10.98;4.38;;;;;;;;;;4973545;28;20057;-85
2021/12/10 09:58:31;;;;;;;8.23;3.75;;;;;;;;;;4980139;28;20023;-84
2021/12/10 10:01:04;;;;;;;6.72;3.35;;;;;;;;;;4986710;28;20027;-84
2021/12/10 10:03:33;;;;;;;5.20;3.47;;;;;;;;;;4959850;28;20027;-85
2021/12/10 10:05:59;;;;;;;10.20;3.88;;;;;;;;;;4977816;28;20033;-87
2021/12/10 10:08:26;;;;;;;7.93;3.42;;;;;;;;;;4981712;28;20022;-84
2021/12/10 10:10:55;;;;;;;7.18;4.10;;;;;;;;;;4991935;28;20567;-84
2021/12/10 10:13:37;;;;;;;7.38;3.58;;;;;;;;;;4981070;28;20073;-86
2021/12/10 10:16:04;;;;;;;8.70;3.97;;;;;;;;;;4982637;28;20027;-85
2021/12/10 10:18:33;;;;;;;5.82;3.47;;;;;;;;;;4970908;28;20035;-84
2021/12/10 10:21:05;;;;;;;9.95;4.18;;;;;;;;;;4983878;28;20027;-84
2021/12/10 10:23:30;;;;;;;5.65;3.78;;;;;;;;;;4991584;28;20034;-85
2021/12/10 10:25:59;;;;;;;8.40;4.72;;;;;;;;;;4973005;28;20034;-83
2021/12/10 10:28:26;;;;;;;10.43;4.50;;;;;;;;;;4966006;28;20077;-85
2021/12/10 10:30:59;;;;;;;11.25;5.22;;;;;;;;;;4978292;28;20394;-84
2021/12/10 10:33:30;;;;;;;9.25;4.65;;;;;;;;;;4991838;28;20481;-84
2021/12/10 10:35:59;;;;;;;10.85;4.07;;;;;;;;;;4954228;28;20086;-84
2021/12/10 10:38:26;;;;;;;9.52;4.97;;;;;;;;;;4974593;28;20092;-84
2021/12/10 10:40:57;;;;;;;11.30;6.05;;;;;;;;;;4984804;28;20042;-83
2021/12/10 10:43:25;;;;;;;12.90;5.22;;;;;;;;;;4979707;28;20483;-86
2021/12/10 10:45:50;;;;;;;7.90;4.40;;;;;;;;;;4966973;28;20033;-85
2021/12/10 10:48:18;;;;;;;9.40;4.80;;;;;;;;;;4978651;28;20022;-85
2021/12/10 10:50:54;;;;;;;9.45;5.10;;;;;;;;;;4983075;28;20059;-85
2021/12/10 10:53:24;;;;;;;9.60;4.80;;;;;;;;;;4978620;28;20018;-86
2021/12/10 10:55:59;;;;;;;10.30;4.90;;;;;;;;;;4986065;28;20026;-85
2021/12/10 10:58:30;;;;;;;10.00;4.57;;;;;;;;;;4977407;28;20400;-84
2021/12/10 11:01:07;;;;;;;6.95;4.30;;;;;;;;;;4956304;28;20054;-84
2021/12/10 11:03:44;;;;;;;11.30;5.05;;;;;;;;;;4983636;28;20065;-84
2021/12/10 11:06:14;;;;;;;7.25;3.72;;;;;;;;;;4975112;28;20077;-86
2021/12/10 11:08:49;;;;;;;7.65;4.75;;;;;;;;;;4981422;28;20031;-86
2021/12/10 11:11:18;;;;;;;12.32;4.35;;;;;;;;;;4978575;28;20030;-83
2021/12/10 11:13:47;;;;;;;7.93;3.78;;;;;;;;;;4994469;28;20399;-84
2021/12/10 11:16:18;;;;;;;7.15;3.90;;;;;;;;;;4979173;28;20106;-84
2021/12/10 11:18:49;;;;;;;8.20;3.83;;;;;;;;;;4960732;28;20031;-85
2021/12/10 11:21:16;;;;;;;7.00;4.20;;;;;;;;;;4968306;28;20025;-84
2021/12/10 11:23:42;;;;;;;7.78;4.38;;;;;;;;;;4971545;28;20035;-86
2021/12/10 11:26:10;;;;;;;9.00;4.45;;;;;;;;;;4978493;28;20031;-86
2021/12/10 11:28:39;;;;;;;6.53;3.88;;;;;;;;;;4981620;28;20023;-84
2021/12/10 11:31:15;;;;;;;11.60;5.28;;;;;;;;;;4977724;28;20388;-86
2021/12/10 11:33:49;;;;;;;9.35;3.75;;;;;;;;;;4985927;28;20036;-85
2021/12/10 11:36:21;;;;;;;7.68;3.40;;;;;;;;;;4973726;28;20026;-87
2021/12/10 11:38:51;;;;;;;13.32;3.90;;;;;;;;;;4983909;28;20034;-85
2021/12/10 11:41:22;;;;;;;9.98;3.50;;;;;;;;;;4979587;28;20046;-85
2021/12/10 11:44:17;;;;;;;4.87;3.30;;;;;;;;;;4987414;28;20392;-87
2021/12/10 11:49:35;;;;;;;5.07;2.47;;;;;;;;;;4983418;28;20153;-85
2021/12/10 11:52:06;;;;;;;2.10;1.45;;;;;;;;;;4971154;28;20026;-84
2021/12/10 11:54:38;;;;;;;4.78;1.55;;;;;;;;;;4983904;28;20062;-86
2021/12/10 11:57:26;;;;;;;1.88;1.00;;;;;;;;;;4989343;28;20029;-85
2021/12/10 11:59:56;;;;;;;2.20;1.40;;;;;;;;;;4976154;28;20107;-84
2021/12/10 12:02:28;;;;;;;1.60;1.10;;;;;;;;;;4974780;28;20022;-84
2021/12/10 12:05:05;;;;;;;3.40;1.42;;;;;;;;;;4979408;28;20022;-85
2021/12/10 12:07:33;;;;;;;1.92;1.30;;;;;;;;;;4956508;28;20118;-83
2021/12/10 12:10:06;;;;;;;4.03;1.20;;;;;;;;;;4983557;28;20495;-84
2021/12/10 12:12:45;;;;;;;3.72;1.30;;;;;;;;;;4984950;28;20054;-84
2021/12/10 12:15:16;;;;;;;1.75;1.08;;;;;;;;;;4966977;28;20054;-84
2021/12/10 12:17:45;;;;;;;6.53;1.60;;;;;;;;;;4981936;28;20091;-85
2021/12/10 12:20:29;;;;;;;2.33;1.48;;;;;;;;;;4981171;28;20023;-85
2021/12/10 12:25:54;;;;;;;8.25;1.80;;;;;;;;;;4979207;28;20099;-88
2021/12/10 12:28:24;;;;;;;4.80;1.40;;;;;;;;;;4976159;28;20065;-85
2021/12/10 12:30:55;;;;;;;3.50;1.40;;;;;;;;;;4972708;28;20033;-84
2021/12/10 12:33:22;;;;;;;4.18;1.80;;;;;;;;;;4959904;28;20495;-84
2021/12/10 12:35:48;;;;;;;2.53;1.50;;;;;;;;;;4970122;28;20050;-83
2021/12/10 12:38:21;;;;;;;2.30;1.50;;;;;;;;;;4975068;28;20019;-83
2021/12/10 12:41:06;;;;;;;1.67;1.58;;;;;;;;;;4978329;28;20429;-84
2021/12/10 12:43:31;;;;;;;3.72;2.00;;;;;;;;;;4962879;28;20097;-83
2021/12/10 12:46:05;;;;;;;2.30;1.27;;;;;;;;;;4971810;28;20480;-84
2021/12/10 12:48:30;;;;;;;2.13;1.73;;;;;;;;;;4979077;28;20396;-85
2021/12/10 12:51:01;;;;;;;2.53;1.60;;;;;;;;;;4978141;28;20037;-85
2021/12/10 12:53:30;;;;;;;5.10;1.75;;;;;;;;;;4977158;28;20544;-83
2021/12/10 12:56:05;;;;;;;1.52;1.42;;;;;;;;;;4972020;28;20118;-83
2021/12/10 12:58:49;;;;;;;1.80;1.70;;;;;;;;;;4983779;28;20030;-83
2021/12/10 13:01:21;;;;;;;4.32;1.83;;;;;;;;;;4973537;28;20019;-83
2021/12/10 13:03:54;;;;;;;2.50;1.65;;;;;;;;;;4968168;28;20028;-83
2021/12/10 13:06:22;;;;;;;6.10;2.88;;;;;;;;;;4962716;28;20027;-84
2021/12/10 13:09:09;;;;;;;6.55;2.40;;;;;;;;;;4979977;28;20039;-84
2021/12/10 13:11:55;;;;;;;4.85;1.85;;;;;;;;;;4979148;28;20352;-85
2021/12/10 13:22:12;;;;;;;2.85;1.88;;;;;;;;;;4948567;29;20163;-89
2021/12/10 13:24:42;;;;;;;2.70;2.25;;;;;;;;;;4919073;29;20038;-88
2021/12/10 13:27:12;;;;;;;5.70;2.00;;;;;;;;;;4920560;29;20078;-89
2021/12/10 13:29:47;;;;;;;2.95;2.13;;;;;;;;;;4919806;29;20031;-89
2021/12/10 13:32:13;;;;;;;3.83;2.13;;;;;;;;;;4911379;29;20035;-89
2021/12/10 13:34:49;;;;;;;6.43;2.40;;;;;;;;;;4932080;28;20136;-89
2021/12/10 13:37:15;;;;;;;7.68;2.13;;;;;;;;;;4917952;29;20023;-90
2021/12/10 13:39:46;;;;;;;5.82;2.55;;;;;;;;;;4897814;29;20028;-89
2021/12/10 13:42:18;;;;;;;2.05;1.85;;;;;;;;;;4919591;29;20027;-89
2021/12/10 13:44:51;;;;;;;4.85;1.70;;;;;;;;;;4915153;29;20088;-90
2021/12/10 13:47:50;;;;;;;3.40;2.45;;;;;;;;;;4919940;29;20027;-89
2021/12/10 13:50:33;;;;;;;3.00;2.05;;;;;;;;;;4939166;29;20436;-89
2021/12/10 13:53:04;;;;;;;5.15;2.40;;;;;;;;;;4921677;29;20031;-89
2021/12/10 13:55:44;;;;;;;14.43;2.72;;;;;;;;;;4932586;29;20091;-89
2021/12/10 13:58:26;;;;;;;6.20;2.70;;;;;;;;;;4925139;29;20036;-88
2021/12/10 14:00:51;;;;;;;;;;;;;;;;;;4929418;29;20107;-89
2021/12/10 14:03:40;;;;;;;4.38;1.88;;;;;;;;;;4933821;29;20277;-89
2021/12/10 14:06:38;;;;;;;5.95;1.90;;;;;;;;;;4937438;29;20040;-90
2021/12/10 14:09:13;;;;;;;7.15;2.20;;;;;;;;;;4944808;29;20042;-89
2021/12/10 14:11:57;;;;;;;5.32;2.30;;;;;;;;;;4924900;29;20038;-90
2021/12/10 14:14:54;;;;;;;5.38;2.40;;;;;;;;;;4939576;29;20098;-89
2021/12/10 14:18:15;;;;;;;4.18;2.20;;;;;;;;;;4852679;29;20124;-88
2021/12/10 14:21:20;;;;;;;6.68;2.33;;;;;;;;;;4854403;29;20041;-89
2021/12/10 14:24:24;;;;;;;4.32;2.45;;;;;;;;;;4856752;29;20034;-90
2021/12/10 14:27:42;;;;;;;3.20;2.22;;;;;;;;;;4855379;29;20499;-88
2021/12/10 14:37:52;;;;;;;;;;;;;;;;;;;;;
2021/12/10 14:44:36;;;;;;;4.45;2.53;;;;;;;;;;4829421;29;20036;-88
2021/12/10 14:55:04;;;;;;;6.07;2.95;;;;;;;;;;4828798;29;20082;-90
2021/12/10 15:08:35;;;;;;;6.18;3.35;;;;;;;;;;4787204;29;20042;-89
2021/12/10 15:19:07;;;;;;;;;;;;;;;;;;;;;
2021/12/10 15:25:43;;;;;;;;;;;;;;;;;;;;;
2021/12/10 15:41:56;;;;;;;4.43;2.00;;;;;;;;;;4818428;29;19927;-89
2021/12/10 15:48:19;;;;;;;1.90;1.70;;;;;;;;;;4816717;29;20042;-89
2021/12/10 16:06:24;;;;;;;;;;;;;;;;;;;;;
2021/12/10 16:46:34;;;;;;;4.30;2.25;;;;;;;;;;4663117;30;20539;-89
2021/12/10 16:49:05;;;;;;;2.95;2.42;;;;;;;;;;4889487;29;20116;-88
2021/12/10 16:51:41;;;;;;;5.15;2.97;;;;;;;;;;4921489;29;20027;-88
2021/12/10 16:54:38;;;;;;;4.90;3.10;;;;;;;;;;4918859;29;20027;-90
2021/12/10 16:57:36;;;;;;;5.88;3.45;;;;;;;;;;4924689;29;20046;-88
2021/12/10 17:00:17;;;;;;;4.70;2.97;;;;;;;;;;4922059;29;20039;-88
2021/12/10 17:02:46;;;;;;;6.20;3.53;;;;;;;;;;4923583;29;20149;-88
2021/12/10 17:05:15;;;;;;;6.80;3.28;;;;;;;;;;4931718;28;20285;-87
2021/12/10 17:07:44;;;;;;;8.95;4.88;;;;;;;;;;4945463;29;20433;-87
2021/12/10 17:10:17;;;;;;;8.23;4.13;;;;;;;;;;4933193;29;20024;-87
2021/12/10 17:12:43;;;;;;;6.25;3.20;;;;;;;;;;4937711;29;20083;-88
2021/12/10 17:15:25;;;;;;;4.85;3.25;;;;;;;;;;4938541;29;20052;-87
2021/12/10 17:17:56;;;;;;;6.35;4.10;;;;;;;;;;4951110;29;20099;-88